sensor_id;sensor_type;location;lat;lon;timestamp;pressure;altitude;pressure_sealevel;temperature;humidity
6680;BME280;3376;42.664;23.346;2023-06-01T00:00:50;94676.88;;;14.92;100.00
6680;BME280;3376;42.664;23.346;2023-06-01T00:03:21;94670.03;;;14.91;100.00
6680;BME280;3376;42.664;23.346;2023-06-01T00:05:48;94687.72;;;15.02;100.00
6680;BME280;3376;42.664;23.346;2023-06-01T00:08:16;94697.56;;;15.00;100.00
6680;BME280;3376;42.664;23.346;2023-06-01T00:10:43;94673.47;;;14.92;100.00
6680;BME280;3376;42.664;23.346;2023-06-01T00:13:10;94694.56;;;15.03;100.00
6680;BME280;3376;42.664;23.346;2023-06-01T00:15:36;94676.69;;;14.87;100.00
6680;BME280;3376;42.664;23.346;2023-06-01T00:18:03;94693.34;;;14.93;100.00
6680;BME280;3376;42.664;23.346;2023-06-01T00:20:31;94691.72;;;14.98;100.00
6680;BME280;3376;42.664;23.346;2023-06-01T00:22:58;94694.13;;;14.93;100.00
6680;BME280;3376;42.664;23.346;2023-06-01T00:25:26;94699.53;;;14.92;100.00
6680;BME280;3376;42.664;23.346;2023-06-01T00:27:53;94697.75;;;14.92;100.00
6680;BME280;3376;42.664;23.346;2023-06-01T00:30:21;94657.75;;;14.66;100.00
6680;BME280;3376;42.664;23.346;2023-06-01T00:32:48;94701.75;;;14.88;100.00
6680;BME280;3376;42.664;23.346;2023-06-01T00:35:14;94696.72;;;14.87;100.00
6680;BME280;3376;42.664;23.346;2023-06-01T00:37:41;94699.69;;;14.71;100.00
6680;BME280;3376;42.664;23.346;2023-06-01T00:40:09;94695.69;;;14.68;100.00
6680;BME280;3376;42.664;23.346;2023-06-01T00:42:37;94692.88;;;14.76;100.00
6680;BME280;3376;42.664;23.346;2023-06-01T00:45:05;94695.69;;;14.75;100.00
6680;BME280;3376;42.664;23.346;2023-06-01T00:47:38;94693.28;;;14.73;100.00
6680;BME280;3376;42.664;23.346;2023-06-01T00:50:06;94525.09;;;13.63;100.00
6680;BME280;3376;42.664;23.346;2023-06-01T00:52:33;94695.91;;;14.73;100.00
6680;BME280;3376;42.664;23.346;2023-06-01T00:55:02;94698.47;;;14.60;100.00
6680;BME280;3376;42.664;23.346;2023-06-01T00:57:29;94616.19;;;13.97;100.00
6680;BME280;3376;42.664;23.346;2023-06-01T00:59:57;94694.03;;;14.54;100.00
6680;BME280;3376;42.664;23.346;2023-06-01T01:02:24;94696.81;;;14.46;100.00
6680;BME280;3376;42.664;23.346;2023-06-01T01:04:51;94695.19;;;14.45;100.00
6680;BME280;3376;42.664;23.346;2023-06-01T01:07:21;94640.47;;;14.04;100.00
6680;BME280;3376;42.664;23.346;2023-06-01T01:09:56;94683.44;;;14.22;100.00
6680;BME280;3376;42.664;23.346;2023-06-01T01:12:31;94686.22;;;14.20;100.00
6680;BME280;3376;42.664;23.346;2023-06-01T01:15:05;94697.53;;;14.27;100.00
6680;BME280;3376;42.664;23.346;2023-06-01T01:17:36;94684.41;;;14.14;100.00
6680;BME280;3376;42.664;23.346;2023-06-01T01:20:08;94702.69;;;14.21;100.00
6680;BME280;3376;42.664;23.346;2023-06-01T01:22:53;94706.25;;;14.19;100.00
6680;BME280;3376;42.664;23.346;2023-06-01T01:28:33;94667.63;;;13.89;100.00
6680;BME280;3376;42.664;23.346;2023-06-01T01:31:04;94690.16;;;14.03;100.00
6680;BME280;3376;42.664;23.346;2023-06-01T01:33:32;94701.19;;;14.05;100.00
6680;BME280;3376;42.664;23.346;2023-06-01T01:35:59;94706.63;;;14.10;100.00
6680;BME280;3376;42.664;23.346;2023-06-01T01:38:27;94690.59;;;13.79;100.00
6680;BME280;3376;42.664;23.346;2023-06-01T01:40:54;94710.53;;;13.93;100.00
6680;BME280;3376;42.664;23.346;2023-06-01T01:43:22;94707.47;;;13.83;100.00
6680;BME280;3376;42.664;23.346;2023-06-01T01:45:56;94691.84;;;13.83;100.00
6680;BME280;3376;42.664;23.346;2023-06-01T01:48:37;94703.66;;;13.85;100.00
6680;BME280;3376;42.664;23.346;2023-06-01T01:51:10;94711.03;;;13.82;100.00
6680;BME280;3376;42.664;23.346;2023-06-01T01:53:41;94698.03;;;13.82;100.00
6680;BME280;3376;42.664;23.346;2023-06-01T01:56:11;94671.53;;;13.72;100.00
6680;BME280;3376;42.664;23.346;2023-06-01T01:58:40;94708.56;;;14.01;100.00
6680;BME280;3376;42.664;23.346;2023-06-01T02:01:10;94700.13;;;13.93;100.00
6680;BME280;3376;42.664;23.346;2023-06-01T02:03:37;94711.38;;;14.00;100.00
6680;BME280;3376;42.664;23.346;2023-06-01T02:06:04;94702.50;;;13.88;100.00
6680;BME280;3376;42.664;23.346;2023-06-01T02:08:31;94704.94;;;13.96;100.00
6680;BME280;3376;42.664;23.346;2023-06-01T02:10:58;94701.72;;;13.94;100.00
6680;BME280;3376;42.664;23.346;2023-06-01T02:13:24;94710.13;;;13.96;100.00
6680;BME280;3376;42.664;23.346;2023-06-01T02:15:51;94710.78;;;14.04;100.00
6680;BME280;3376;42.664;23.346;2023-06-01T02:18:19;94711.81;;;14.03;100.00
6680;BME280;3376;42.664;23.346;2023-06-01T02:20:46;94700.84;;;13.87;100.00
6680;BME280;3376;42.664;23.346;2023-06-01T02:23:13;94709.28;;;13.89;100.00
6680;BME280;3376;42.664;23.346;2023-06-01T02:25:39;94712.94;;;13.94;100.00
6680;BME280;3376;42.664;23.346;2023-06-01T02:28:06;94600.91;;;13.20;100.00
6680;BME280;3376;42.664;23.346;2023-06-01T02:30:33;94710.94;;;13.96;100.00
6680;BME280;3376;42.664;23.346;2023-06-01T02:33:00;94714.97;;;13.99;100.00
6680;BME280;3376;42.664;23.346;2023-06-01T02:35:28;94712.75;;;13.96;100.00
6680;BME280;3376;42.664;23.346;2023-06-01T02:37:54;94713.56;;;13.96;100.00
6680;BME280;3376;42.664;23.346;2023-06-01T02:40:22;94711.94;;;13.95;100.00
6680;BME280;3376;42.664;23.346;2023-06-01T02:42:49;94718.47;;;13.85;100.00
6680;BME280;3376;42.664;23.346;2023-06-01T02:45:16;94699.50;;;13.63;100.00
6680;BME280;3376;42.664;23.346;2023-06-01T02:47:42;94621.72;;;13.20;100.00
6680;BME280;3376;42.664;23.346;2023-06-01T02:50:10;94691.50;;;13.65;100.00
6680;BME280;3376;42.664;23.346;2023-06-01T02:52:38;94718.63;;;13.77;100.00
6680;BME280;3376;42.664;23.346;2023-06-01T02:55:07;94719.94;;;13.94;100.00
6680;BME280;3376;42.664;23.346;2023-06-01T02:57:34;94724.00;;;14.03;100.00
6680;BME280;3376;42.664;23.346;2023-06-01T03:00:01;94720.78;;;14.01;100.00
6680;BME280;3376;42.664;23.346;2023-06-01T03:02:28;94714.09;;;13.92;100.00
6680;BME280;3376;42.664;23.346;2023-06-01T03:04:54;94706.88;;;13.87;100.00
6680;BME280;3376;42.664;23.346;2023-06-01T03:07:21;94718.47;;;13.85;100.00
6680;BME280;3376;42.664;23.346;2023-06-01T03:09:49;94708.44;;;13.82;100.00
6680;BME280;3376;42.664;23.346;2023-06-01T03:12:16;94715.31;;;13.89;100.00
6680;BME280;3376;42.664;23.346;2023-06-01T03:14:43;94716.06;;;13.83;100.00
6680;BME280;3376;42.664;23.346;2023-06-01T03:17:09;94712.88;;;13.81;100.00
6680;BME280;3376;42.664;23.346;2023-06-01T03:19:36;94729.50;;;13.87;100.00
6680;BME280;3376;42.664;23.346;2023-06-01T03:22:03;94725.16;;;13.94;100.00
6680;BME280;3376;42.664;23.346;2023-06-01T03:24:30;94725.56;;;13.97;100.00
6680;BME280;3376;42.664;23.346;2023-06-01T03:26:59;94733.66;;;14.09;100.00
6680;BME280;3376;42.664;23.346;2023-06-01T03:29:26;94732.69;;;14.10;100.00
6680;BME280;3376;42.664;23.346;2023-06-01T03:31:53;94709.75;;;13.99;100.00
6680;BME280;3376;42.664;23.346;2023-06-01T03:34:19;94724.91;;;14.23;100.00
6680;BME280;3376;42.664;23.346;2023-06-01T03:36:46;94719.91;;;14.22;100.00
6680;BME280;3376;42.664;23.346;2023-06-01T03:39:14;94721.19;;;14.32;100.00
6680;BME280;3376;42.664;23.346;2023-06-01T03:41:41;94715.19;;;14.38;100.00
6680;BME280;3376;42.664;23.346;2023-06-01T03:44:10;94623.84;;;13.71;100.00
6680;BME280;3376;42.664;23.346;2023-06-01T03:46:38;94694.72;;;14.29;100.00
6680;BME280;3376;42.664;23.346;2023-06-01T03:49:05;94712.84;;;14.43;100.00
6680;BME280;3376;42.664;23.346;2023-06-01T03:51:32;94724.53;;;14.60;100.00
6680;BME280;3376;42.664;23.346;2023-06-01T03:53:58;94718.94;;;14.70;100.00
6680;BME280;3376;42.664;23.346;2023-06-01T03:56:26;94730.44;;;14.88;100.00
6680;BME280;3376;42.664;23.346;2023-06-01T03:58:52;94632.59;;;14.32;100.00
6680;BME280;3376;42.664;23.346;2023-06-01T04:01:21;94734.88;;;14.94;100.00
6680;BME280;3376;42.664;23.346;2023-06-01T04:03:48;94739.94;;;15.09;100.00
6680;BME280;3376;42.664;23.346;2023-06-01T04:06:15;94739.13;;;15.08;100.00
6680;BME280;3376;42.664;23.346;2023-06-01T04:08:43;94748.78;;;15.14;100.00
6680;BME280;3376;42.664;23.346;2023-06-01T04:11:14;94742.75;;;15.14;100.00
6680;BME280;3376;42.664;23.346;2023-06-01T04:13:41;94724.28;;;15.09;100.00
6680;BME280;3376;42.664;23.346;2023-06-01T04:16:09;94605.34;;;14.41;100.00
6680;BME280;3376;42.664;23.346;2023-06-01T04:18:37;94740.34;;;15.25;100.00
6680;BME280;3376;42.664;23.346;2023-06-01T04:21:04;94686.91;;;14.95;100.00
6680;BME280;3376;42.664;23.346;2023-06-01T04:23:32;94737.97;;;15.30;100.00
6680;BME280;3376;42.664;23.346;2023-06-01T04:25:58;94718.28;;;15.21;100.00
6680;BME280;3376;42.664;23.346;2023-06-01T04:28:27;94729.16;;;15.45;100.00
6680;BME280;3376;42.664;23.346;2023-06-01T04:30:55;94736.00;;;15.65;100.00
6680;BME280;3376;42.664;23.346;2023-06-01T04:33:22;94740.84;;;15.68;100.00
6680;BME280;3376;42.664;23.346;2023-06-01T04:35:51;94740.81;;;15.88;100.00
6680;BME280;3376;42.664;23.346;2023-06-01T04:38:19;94736.56;;;16.06;100.00
6680;BME280;3376;42.664;23.346;2023-06-01T04:40:46;94741.16;;;16.30;100.00
6680;BME280;3376;42.664;23.346;2023-06-01T04:43:13;94747.97;;;16.44;100.00
6680;BME280;3376;42.664;23.346;2023-06-01T04:45:45;94751.59;;;16.43;100.00
6680;BME280;3376;42.664;23.346;2023-06-01T04:48:12;94756.84;;;16.50;100.00
6680;BME280;3376;42.664;23.346;2023-06-01T04:50:40;94743.75;;;16.50;100.00
6680;BME280;3376;42.664;23.346;2023-06-01T04:53:08;94763.66;;;16.44;100.00
6680;BME280;3376;42.664;23.346;2023-06-01T04:55:34;94751.22;;;16.40;100.00
6680;BME280;3376;42.664;23.346;2023-06-01T04:58:01;94761.84;;;16.45;100.00
6680;BME280;3376;42.664;23.346;2023-06-01T05:00:29;94760.66;;;16.48;100.00
6680;BME280;3376;42.664;23.346;2023-06-01T05:02:55;94763.69;;;16.38;100.00
6680;BME280;3376;42.664;23.346;2023-06-01T05:05:22;94726.28;;;16.31;100.00
6680;BME280;3376;42.664;23.346;2023-06-01T05:07:49;94766.84;;;16.60;100.00
6680;BME280;3376;42.664;23.346;2023-06-01T05:10:17;94766.47;;;16.56;100.00
6680;BME280;3376;42.664;23.346;2023-06-01T05:12:44;94770.88;;;16.69;100.00
6680;BME280;3376;42.664;23.346;2023-06-01T05:15:11;94774.88;;;16.78;100.00
6680;BME280;3376;42.664;23.346;2023-06-01T05:17:38;94744.69;;;16.75;100.00
6680;BME280;3376;42.664;23.346;2023-06-01T05:20:06;94767.13;;;16.96;100.00
6680;BME280;3376;42.664;23.346;2023-06-01T05:22:34;94731.16;;;16.78;100.00
6680;BME280;3376;42.664;23.346;2023-06-01T05:25:01;94771.81;;;17.25;100.00
6680;BME280;3376;42.664;23.346;2023-06-01T05:27:29;94753.72;;;17.23;100.00
6680;BME280;3376;42.664;23.346;2023-06-01T05:29:56;94768.53;;;17.36;100.00
6680;BME280;3376;42.664;23.346;2023-06-01T05:32:22;94757.59;;;17.45;100.00
6680;BME280;3376;42.664;23.346;2023-06-01T05:34:49;94767.97;;;17.65;100.00
6680;BME280;3376;42.664;23.346;2023-06-01T05:37:16;94776.72;;;17.84;100.00
6680;BME280;3376;42.664;23.346;2023-06-01T05:39:43;94767.81;;;17.85;100.00
6680;BME280;3376;42.664;23.346;2023-06-01T05:42:09;94764.56;;;17.89;100.00
6680;BME280;3376;42.664;23.346;2023-06-01T05:44:37;94757.50;;;18.14;100.00
6680;BME280;3376;42.664;23.346;2023-06-01T05:47:05;94763.41;;;18.28;100.00
6680;BME280;3376;42.664;23.346;2023-06-01T05:49:32;94757.88;;;18.42;100.00
6680;BME280;3376;42.664;23.346;2023-06-01T05:51:58;94761.78;;;18.51;100.00
6680;BME280;3376;42.664;23.346;2023-06-01T05:54:26;94770.75;;;18.62;100.00
6680;BME280;3376;42.664;23.346;2023-06-01T05:56:52;94771.19;;;18.77;100.00
6680;BME280;3376;42.664;23.346;2023-06-01T05:59:19;94765.38;;;18.93;100.00
6680;BME280;3376;42.664;23.346;2023-06-01T06:01:47;94768.44;;;18.90;100.00
6680;BME280;3376;42.664;23.346;2023-06-01T06:04:14;94765.94;;;18.95;100.00
6680;BME280;3376;42.664;23.346;2023-06-01T06:06:41;94755.59;;;18.82;100.00
6680;BME280;3376;42.664;23.346;2023-06-01T06:09:08;94772.22;;;18.94;100.00
6680;BME280;3376;42.664;23.346;2023-06-01T06:11:37;94771.38;;;19.12;100.00
6680;BME280;3376;42.664;23.346;2023-06-01T06:14:04;94759.09;;;19.24;100.00
6680;BME280;3376;42.664;23.346;2023-06-01T06:16:30;94714.16;;;19.02;100.00
6680;BME280;3376;42.664;23.346;2023-06-01T06:18:58;94770.50;;;19.36;100.00
6680;BME280;3376;42.664;23.346;2023-06-01T06:21:25;94769.13;;;19.33;100.00
6680;BME280;3376;42.664;23.346;2023-06-01T06:23:52;94774.97;;;18.99;100.00
6680;BME280;3376;42.664;23.346;2023-06-01T06:26:24;94774.41;;;18.97;100.00
6680;BME280;3376;42.664;23.346;2023-06-01T06:28:51;94762.28;;;18.96;100.00
6680;BME280;3376;42.664;23.346;2023-06-01T06:31:18;94779.63;;;19.15;100.00
6680;BME280;3376;42.664;23.346;2023-06-01T06:33:45;94777.69;;;19.11;100.00
6680;BME280;3376;42.664;23.346;2023-06-01T06:36:13;94758.03;;;19.13;100.00
6680;BME280;3376;42.664;23.346;2023-06-01T06:38:40;94780.88;;;19.31;100.00
6680;BME280;3376;42.664;23.346;2023-06-01T06:41:07;94766.88;;;19.37;100.00
6680;BME280;3376;42.664;23.346;2023-06-01T06:43:33;94779.25;;;19.59;100.00
6680;BME280;3376;42.664;23.346;2023-06-01T06:46:00;94749.34;;;19.60;100.00
6680;BME280;3376;42.664;23.346;2023-06-01T06:48:27;94775.34;;;19.92;100.00
6680;BME280;3376;42.664;23.346;2023-06-01T06:50:54;94771.81;;;19.98;100.00
6680;BME280;3376;42.664;23.346;2023-06-01T06:53:22;94774.66;;;19.96;100.00
6680;BME280;3376;42.664;23.346;2023-06-01T06:55:49;94775.25;;;20.10;100.00
6680;BME280;3376;42.664;23.346;2023-06-01T06:58:16;94773.78;;;20.14;100.00
6680;BME280;3376;42.664;23.346;2023-06-01T07:00:42;94768.19;;;20.22;100.00
6680;BME280;3376;42.664;23.346;2023-06-01T07:03:10;94773.13;;;20.41;100.00
6680;BME280;3376;42.664;23.346;2023-06-01T07:05:37;94668.66;;;19.96;100.00
6680;BME280;3376;42.664;23.346;2023-06-01T07:08:04;94774.72;;;20.65;100.00
6680;BME280;3376;42.664;23.346;2023-06-01T07:10:32;94764.19;;;20.65;100.00
6680;BME280;3376;42.664;23.346;2023-06-01T07:12:58;94651.75;;;19.92;100.00
6680;BME280;3376;42.664;23.346;2023-06-01T07:15:25;94770.22;;;20.77;100.00
6680;BME280;3376;42.664;23.346;2023-06-01T07:17:52;94765.78;;;20.55;100.00
6680;BME280;3376;42.664;23.346;2023-06-01T07:20:19;94748.94;;;20.79;100.00
6680;BME280;3376;42.664;23.346;2023-06-01T07:22:46;94759.88;;;21.11;100.00
6680;BME280;3376;42.664;23.346;2023-06-01T07:25:13;94769.63;;;21.38;100.00
6680;BME280;3376;42.664;23.346;2023-06-01T07:27:41;94757.94;;;21.34;100.00
6680;BME280;3376;42.664;23.346;2023-06-01T07:30:10;94767.31;;;21.70;100.00
6680;BME280;3376;42.664;23.346;2023-06-01T07:32:37;94769.97;;;21.86;100.00
6680;BME280;3376;42.664;23.346;2023-06-01T07:35:05;94755.28;;;21.90;100.00
6680;BME280;3376;42.664;23.346;2023-06-01T07:37:33;94746.88;;;22.10;100.00
6680;BME280;3376;42.664;23.346;2023-06-01T07:39:59;94729.06;;;22.00;100.00
6680;BME280;3376;42.664;23.346;2023-06-01T07:42:26;94755.97;;;22.36;100.00
6680;BME280;3376;42.664;23.346;2023-06-01T07:44:55;94745.84;;;22.11;100.00
6680;BME280;3376;42.664;23.346;2023-06-01T07:47:22;94740.06;;;22.31;100.00
6680;BME280;3376;42.664;23.346;2023-06-01T07:49:51;94759.06;;;22.49;100.00
6680;BME280;3376;42.664;23.346;2023-06-01T07:52:17;94753.41;;;22.41;100.00
6680;BME280;3376;42.664;23.346;2023-06-01T07:54:45;94748.06;;;22.36;100.00
6680;BME280;3376;42.664;23.346;2023-06-01T07:57:13;94755.28;;;22.40;100.00
6680;BME280;3376;42.664;23.346;2023-06-01T07:59:39;94757.03;;;22.35;100.00
6680;BME280;3376;42.664;23.346;2023-06-01T08:02:08;94742.56;;;22.21;100.00
6680;BME280;3376;42.664;23.346;2023-06-01T08:04:36;94748.97;;;22.25;100.00
6680;BME280;3376;42.664;23.346;2023-06-01T08:07:03;94749.75;;;22.42;100.00
6680;BME280;3376;42.664;23.346;2023-06-01T08:09:32;94660.41;;;22.17;100.00
6680;BME280;3376;42.664;23.346;2023-06-01T08:11:59;94735.44;;;22.97;99.85
6680;BME280;3376;42.664;23.346;2023-06-01T08:14:26;94756.47;;;23.31;99.71
6680;BME280;3376;42.664;23.346;2023-06-01T08:16:53;94747.66;;;23.25;98.40
6680;BME280;3376;42.664;23.346;2023-06-01T08:19:22;94753.88;;;23.62;96.37
6680;BME280;3376;42.664;23.346;2023-06-01T08:21:49;94749.63;;;23.88;94.51
6680;BME280;3376;42.664;23.346;2023-06-01T08:24:16;94747.69;;;23.78;96.05
6680;BME280;3376;42.664;23.346;2023-06-01T08:26:43;94748.50;;;24.05;94.19
6680;BME280;3376;42.664;23.346;2023-06-01T08:29:11;94730.63;;;24.22;91.48
6680;BME280;3376;42.664;23.346;2023-06-01T08:31:37;94743.81;;;24.54;89.43
6680;BME280;3376;42.664;23.346;2023-06-01T08:34:04;94734.06;;;24.60;87.47
6680;BME280;3376;42.664;23.346;2023-06-01T08:36:32;94736.56;;;24.81;85.01
6680;BME280;3376;42.664;23.346;2023-06-01T08:38:59;94720.13;;;24.84;84.26
6680;BME280;3376;42.664;23.346;2023-06-01T08:41:32;94724.63;;;24.79;83.88
6680;BME280;3376;42.664;23.346;2023-06-01T08:44:03;94711.97;;;24.96;84.83
6680;BME280;3376;42.664;23.346;2023-06-01T08:46:32;94697.16;;;25.10;83.95
6680;BME280;3376;42.664;23.346;2023-06-01T08:49:00;94710.56;;;25.40;84.65
6680;BME280;3376;42.664;23.346;2023-06-01T08:51:28;94711.63;;;25.54;83.65
6680;BME280;3376;42.664;23.346;2023-06-01T08:53:57;94707.66;;;25.51;84.07
6680;BME280;3376;42.664;23.346;2023-06-01T08:56:27;94704.72;;;25.43;84.73
6680;BME280;3376;42.664;23.346;2023-06-01T08:58:55;94697.88;;;25.67;80.44
6680;BME280;3376;42.664;23.346;2023-06-01T09:01:22;94699.47;;;25.93;78.38
6680;BME280;3376;42.664;23.346;2023-06-01T09:03:50;94696.00;;;25.98;79.20
6680;BME280;3376;42.664;23.346;2023-06-01T09:06:17;94693.63;;;26.16;79.77
6680;BME280;3376;42.664;23.346;2023-06-01T09:08:44;94696.53;;;26.25;78.03
6680;BME280;3376;42.664;23.346;2023-06-01T09:11:13;94673.97;;;25.87;79.51
6680;BME280;3376;42.664;23.346;2023-06-01T09:13:40;94670.78;;;25.95;80.88
6680;BME280;3376;42.664;23.346;2023-06-01T09:16:07;94680.06;;;26.28;78.89
6680;BME280;3376;42.664;23.346;2023-06-01T09:18:34;94604.69;;;25.89;78.51
6680;BME280;3376;42.664;23.346;2023-06-01T09:21:11;94679.53;;;26.41;76.50
6680;BME280;3376;42.664;23.346;2023-06-01T09:23:38;94692.22;;;26.59;76.80
6680;BME280;3376;42.664;23.346;2023-06-01T09:26:07;94694.06;;;26.79;72.68
6680;BME280;3376;42.664;23.346;2023-06-01T09:28:55;94693.25;;;26.83;69.37
6680;BME280;3376;42.664;23.346;2023-06-01T09:31:40;94685.56;;;26.72;65.59
6680;BME280;3376;42.664;23.346;2023-06-01T09:34:08;94678.84;;;26.94;63.27
6680;BME280;3376;42.664;23.346;2023-06-01T09:36:37;94678.84;;;26.94;63.63
6680;BME280;3376;42.664;23.346;2023-06-01T09:39:05;94610.88;;;26.73;65.12
6680;BME280;3376;42.664;23.346;2023-06-01T09:41:45;94539.47;;;26.41;67.25
6680;BME280;3376;42.664;23.346;2023-06-01T09:44:14;94665.56;;;26.94;61.46
6680;BME280;3376;42.664;23.346;2023-06-01T09:46:47;94661.53;;;26.97;59.75
6680;BME280;3376;42.664;23.346;2023-06-01T09:49:19;94661.53;;;26.97;59.58
6680;BME280;3376;42.664;23.346;2023-06-01T09:51:47;94655.91;;;27.03;61.41
6680;BME280;3376;42.664;23.346;2023-06-01T09:54:24;94649.84;;;26.98;56.61
6680;BME280;3376;42.664;23.346;2023-06-01T09:56:52;94653.84;;;26.95;55.25
6680;BME280;3376;42.664;23.346;2023-06-01T09:59:20;94646.19;;;26.84;56.38
6680;BME280;3376;42.664;23.346;2023-06-01T10:01:51;94649.16;;;26.57;56.32
6680;BME280;3376;42.664;23.346;2023-06-01T10:04:21;94633.34;;;25.97;55.38
6680;BME280;3376;42.664;23.346;2023-06-01T10:06:50;94641.59;;;25.45;61.10
6680;BME280;3376;42.664;23.346;2023-06-01T10:09:18;94626.91;;;24.97;66.95
6680;BME280;3376;42.664;23.346;2023-06-01T10:11:46;94620.22;;;24.80;69.15
6680;BME280;3376;42.664;23.346;2023-06-01T10:14:14;94630.63;;;24.44;67.84
6680;BME280;3376;42.664;23.346;2023-06-01T10:16:42;94631.03;;;24.16;67.27
6680;BME280;3376;42.664;23.346;2023-06-01T10:19:10;94629.75;;;23.87;66.38
6680;BME280;3376;42.664;23.346;2023-06-01T10:21:37;94632.81;;;23.74;66.37
6680;BME280;3376;42.664;23.346;2023-06-01T10:24:05;94628.25;;;23.65;65.15
6680;BME280;3376;42.664;23.346;2023-06-01T10:26:39;94616.00;;;23.54;63.04
6680;BME280;3376;42.664;23.346;2023-06-01T10:29:08;94624.00;;;23.64;63.19
6680;BME280;3376;42.664;23.346;2023-06-01T10:31:37;94623.94;;;23.54;63.30
6680;BME280;3376;42.664;23.346;2023-06-01T10:34:06;94627.91;;;23.51;63.00
6680;BME280;3376;42.664;23.346;2023-06-01T10:37:12;94624.31;;;23.36;62.87
6680;BME280;3376;42.664;23.346;2023-06-01T10:39:40;94629.69;;;23.19;64.47
6680;BME280;3376;42.664;23.346;2023-06-01T10:42:38;94627.00;;;23.14;65.17
6680;BME280;3376;42.664;23.346;2023-06-01T10:48:12;94626.25;;;23.18;69.72
6680;BME280;3376;42.664;23.346;2023-06-01T10:50:41;94610.66;;;23.17;66.20
6680;BME280;3376;42.664;23.346;2023-06-01T10:53:26;94613.53;;;23.15;66.17
6680;BME280;3376;42.664;23.346;2023-06-01T10:56:17;94620.63;;;23.10;64.25
6680;BME280;3376;42.664;23.346;2023-06-01T10:58:44;94604.97;;;23.03;65.44
6680;BME280;3376;42.664;23.346;2023-06-01T11:01:18;94608.03;;;23.22;63.95
6680;BME280;3376;42.664;23.346;2023-06-01T11:03:46;94593.50;;;23.51;60.60
6680;BME280;3376;42.664;23.346;2023-06-01T11:06:28;94591.91;;;23.87;60.01
6680;BME280;3376;42.664;23.346;2023-06-01T11:08:58;94592.81;;;24.02;59.37
6680;BME280;3376;42.664;23.346;2023-06-01T11:11:58;94592.16;;;23.85;57.82
6680;BME280;3376;42.664;23.346;2023-06-01T11:14:27;94597.22;;;23.55;61.28
6680;BME280;3376;42.664;23.346;2023-06-01T11:16:55;94594.97;;;23.37;62.47
6680;BME280;3376;42.664;23.346;2023-06-01T11:19:25;94593.00;;;22.96;62.39
6680;BME280;3376;42.664;23.346;2023-06-01T11:21:58;94599.09;;;22.75;62.12
6680;BME280;3376;42.664;23.346;2023-06-01T11:24:31;94582.00;;;22.56;62.68
6680;BME280;3376;42.664;23.346;2023-06-01T11:27:05;94588.78;;;22.52;63.04
6680;BME280;3376;42.664;23.346;2023-06-01T11:29:33;94603.03;;;22.29;63.74
6680;BME280;3376;42.664;23.346;2023-06-01T11:32:01;94597.59;;;21.97;64.42
6680;BME280;3376;42.664;23.346;2023-06-01T11:34:31;94599.50;;;21.47;68.43
6680;BME280;3376;42.664;23.346;2023-06-01T11:37:00;94598.41;;;20.98;71.01
6680;BME280;3376;42.664;23.346;2023-06-01T11:39:28;94612.59;;;20.69;72.86
6680;BME280;3376;42.664;23.346;2023-06-01T11:42:05;94619.31;;;20.49;78.67
6680;BME280;3376;42.664;23.346;2023-06-01T11:44:33;94627.72;;;20.23;78.28
6680;BME280;3376;42.664;23.346;2023-06-01T11:47:01;94631.50;;;19.80;84.94
6680;BME280;3376;42.664;23.346;2023-06-01T11:49:28;94615.38;;;19.31;87.90
6680;BME280;3376;42.664;23.346;2023-06-01T11:51:55;94632.91;;;18.89;91.20
6680;BME280;3376;42.664;23.346;2023-06-01T11:54:27;94652.03;;;18.66;91.44
6680;BME280;3376;42.664;23.346;2023-06-01T11:56:55;94644.66;;;18.57;99.17
6680;BME280;3376;42.664;23.346;2023-06-01T11:59:22;94656.47;;;18.30;100.00
6680;BME280;3376;42.664;23.346;2023-06-01T12:01:50;94631.63;;;17.96;100.00
6680;BME280;3376;42.664;23.346;2023-06-01T12:04:19;94635.78;;;17.86;100.00
6680;BME280;3376;42.664;23.346;2023-06-01T12:06:46;94633.00;;;17.81;100.00
6680;BME280;3376;42.664;23.346;2023-06-01T12:09:15;94627.91;;;17.86;100.00
6680;BME280;3376;42.664;23.346;2023-06-01T12:11:43;94620.75;;;17.75;100.00
6680;BME280;3376;42.664;23.346;2023-06-01T12:14:12;94618.28;;;17.80;100.00
6680;BME280;3376;42.664;23.346;2023-06-01T12:16:53;94581.88;;;17.72;100.00
6680;BME280;3376;42.664;23.346;2023-06-01T12:19:22;94595.13;;;17.77;100.00
6680;BME280;3376;42.664;23.346;2023-06-01T12:21:49;94580.44;;;17.76;100.00
6680;BME280;3376;42.664;23.346;2023-06-01T12:24:17;94560.41;;;17.63;100.00
6680;BME280;3376;42.664;23.346;2023-06-01T12:26:46;94577.66;;;17.89;100.00
6680;BME280;3376;42.664;23.346;2023-06-01T12:29:12;94578.25;;;17.91;100.00
6680;BME280;3376;42.664;23.346;2023-06-01T12:31:51;94569.00;;;17.88;100.00
6680;BME280;3376;42.664;23.346;2023-06-01T12:34:18;94565.59;;;17.88;100.00
6680;BME280;3376;42.664;23.346;2023-06-01T12:36:45;94573.38;;;17.94;100.00
6680;BME280;3376;42.664;23.346;2023-06-01T12:39:12;94560.31;;;18.06;100.00
6680;BME280;3376;42.664;23.346;2023-06-01T12:41:48;94560.59;;;18.16;100.00
6680;BME280;3376;42.664;23.346;2023-06-01T12:44:19;94560.47;;;18.29;100.00
6680;BME280;3376;42.664;23.346;2023-06-01T12:46:46;94551.47;;;18.36;100.00
6680;BME280;3376;42.664;23.346;2023-06-01T12:49:14;94545.38;;;18.42;100.00
6680;BME280;3376;42.664;23.346;2023-06-01T12:51:42;94510.81;;;18.45;100.00
6680;BME280;3376;42.664;23.346;2023-06-01T12:54:08;94538.75;;;18.81;100.00
6680;BME280;3376;42.664;23.346;2023-06-01T12:56:35;94548.16;;;19.00;100.00
6680;BME280;3376;42.664;23.346;2023-06-01T12:59:03;94563.56;;;19.20;100.00
6680;BME280;3376;42.664;23.346;2023-06-01T13:01:31;94546.34;;;19.12;100.00
6680;BME280;3376;42.664;23.346;2023-06-01T13:03:58;94520.38;;;18.93;100.00
6680;BME280;3376;42.664;23.346;2023-06-01T13:06:25;94517.31;;;19.07;100.00
6680;BME280;3376;42.664;23.346;2023-06-01T13:08:52;94522.03;;;19.28;100.00
6680;BME280;3376;42.664;23.346;2023-06-01T13:11:19;94530.16;;;19.38;100.00
6680;BME280;3376;42.664;23.346;2023-06-01T13:13:48;94526.50;;;19.62;100.00
6680;BME280;3376;42.664;23.346;2023-06-01T13:16:16;94515.50;;;19.65;100.00